Time;durP1;ratioP1;P1;durP2;ratioP2;P2;SDS_P1;SDS_P2;PMS_P1;PMS_P2;Temp;Humidity;BMP_temperature;BMP_pressure;BME280_temperature;BME280_humidity;BME280_pressure;Samples;Min_cycle;Max_cycle;Signal;HPM_P1;HPM_P2
2022/03/21 07:58:53;;;;;;;48.60;30.95;;;;;;;5.53;78.49;102963.00;5318235;27;1230512;-74
2022/03/21 08:01:27;;;;;;;42.88;30.27;;;;;;;5.61;79.18;102961.97;5343248;28;20071;-74
2022/03/21 08:04:00;;;;;;;43.22;31.00;;;;;;;5.74;79.38;102966.69;5344073;27;20476;-75
2022/03/21 08:06:31;;;;;;;42.47;29.92;;;;;;;5.87;79.34;102972.25;5343205;27;20049;-74
2022/03/21 08:09:03;;;;;;;41.33;30.70;;;;;;;6.00;79.04;102964.06;5339093;27;20020;-75
2022/03/21 08:11:40;;;;;;;37.75;29.60;;;;;;;6.10;78.96;102961.75;5338523;27;20040;-74
2022/03/21 08:14:11;;;;;;;37.85;28.08;;;;;;;6.28;78.55;102958.41;5341466;28;20108;-75
2022/03/21 08:16:43;;;;;;;38.08;28.50;;;;;;;6.41;77.59;102963.06;5322391;28;20442;-75
2022/03/21 08:19:16;;;;;;;33.40;26.92;;;;;;;6.50;76.84;102970.09;5322398;28;20069;-74
2022/03/21 08:21:47;;;;;;;33.90;25.77;;;;;;;6.66;76.16;102970.75;5321564;28;20023;-76
2022/03/21 08:24:19;;;;;;;34.80;24.70;;;;;;;6.80;75.32;102968.81;5322937;28;20130;-75
2022/03/21 08:26:54;;;;;;;31.00;22.25;;;;;;;6.91;74.06;102971.81;5322287;28;20032;-75
2022/03/21 08:29:25;;;;;;;26.60;20.48;;;;;;;7.03;72.95;102966.50;5335401;28;20103;-74
2022/03/21 08:31:57;;;;;;;30.13;19.88;;;;;;;7.13;72.20;102966.91;5335482;27;20095;-75
2022/03/21 08:34:29;;;;;;;24.05;17.88;;;;;;;7.31;70.01;102966.22;5321349;28;20031;-75
2022/03/21 08:37:00;;;;;;;23.35;17.42;;;;;;;7.42;68.43;102966.63;5321906;28;20487;-75
2022/03/21 08:39:31;;;;;;;25.58;17.00;;;;;;;7.50;68.21;102969.97;5321833;28;20032;-75
2022/03/21 08:42:03;;;;;;;24.50;16.75;;;;;;;7.52;68.00;102965.09;5329536;28;20478;-75
2022/03/21 08:44:34;;;;;;;22.75;17.98;;;;;;;7.71;67.77;102968.84;5343235;28;20027;-74
2022/03/21 08:47:06;;;;;;;23.80;17.42;;;;;;;7.79;68.22;102971.34;5323252;27;20498;-75
2022/03/21 08:49:38;;;;;;;24.83;16.77;;;;;;;7.99;67.17;102970.41;5321709;28;20077;-75
2022/03/21 08:52:15;;;;;;;27.00;18.15;;;;;;;8.05;66.83;102956.56;5321421;28;20462;-76
2022/03/21 08:54:47;;;;;;;23.77;16.85;;;;;;;8.28;65.74;102969.81;5322091;28;20028;-75
2022/03/21 08:57:19;;;;;;;22.10;16.88;;;;;;;8.55;64.45;102963.28;5320170;28;20023;-76
2022/03/21 08:59:52;;;;;;;31.70;18.88;;;;;;;8.71;64.05;102962.72;5332478;28;20539;-76
2022/03/21 09:02:23;;;;;;;24.38;17.05;;;;;;;8.83;63.43;102966.44;5327501;27;20020;-76
2022/03/21 09:05:16;;;;;;;29.13;18.35;;;;;;;9.06;63.63;102962.19;5321505;28;20481;-76
2022/03/21 09:07:47;;;;;;;26.30;18.73;;;;;;;9.11;63.01;102963.19;5321084;28;20455;-75
2022/03/21 09:10:18;;;;;;;23.88;17.00;;;;;;;9.23;62.83;102973.50;5306162;28;20063;-74
2022/03/21 09:12:50;;;;;;;24.27;16.73;;;;;;;9.24;62.68;102969.69;5307556;28;20385;-73
2022/03/21 09:15:22;;;;;;;32.30;17.55;;;;;;;9.23;63.47;102965.22;5323698;28;20019;-74
2022/03/21 09:17:53;;;;;;;24.98;18.20;;;;;;;9.29;63.01;102970.69;5312969;28;20028;-74
2022/03/21 09:20:24;;;;;;;22.05;17.42;;;;;;;9.35;62.78;102963.38;5321024;28;20038;-75
2022/03/21 09:22:57;;;;;;;24.90;19.55;;;;;;;9.42;63.02;102966.09;5320758;28;20066;-74
2022/03/21 09:25:28;;;;;;;28.02;17.77;;;;;;;9.47;62.90;102960.69;5306228;28;20024;-74
2022/03/21 09:28:03;;;;;;;22.83;18.20;;;;;;;9.53;62.46;102952.28;5306964;28;20054;-74
2022/03/21 09:30:34;;;;;;;25.98;18.25;;;;;;;9.63;62.29;102954.53;5308856;28;20111;-75
2022/03/21 09:33:05;;;;;;;22.55;16.77;;;;;;;9.64;61.50;102949.81;5328022;28;20107;-74
2022/03/21 09:35:37;;;;;;;25.88;16.33;;;;;;;9.66;60.82;102950.44;5327795;28;20492;-75
2022/03/21 09:38:09;;;;;;;23.02;16.10;;;;;;;9.85;60.79;102952.13;5307413;28;20532;-75
2022/03/21 09:40:44;;;;;;;26.08;17.08;;;;;;;9.95;60.50;102946.03;5320252;28;20389;-75
2022/03/21 09:43:15;;;;;;;21.55;17.20;;;;;;;10.06;60.80;102949.94;5324671;28;20114;-74
2022/03/21 09:45:46;;;;;;;22.25;17.15;;;;;;;10.16;59.80;102936.34;5326918;28;20359;-75
2022/03/21 09:48:19;;;;;;;21.88;16.60;;;;;;;10.32;58.76;102944.00;5327719;28;20020;-75
2022/03/21 09:50:52;;;;;;;22.55;17.08;;;;;;;10.38;58.18;102944.97;5327425;28;20364;-77
2022/03/21 09:53:25;;;;;;;20.50;16.33;;;;;;;10.35;57.96;102942.69;5325874;28;20098;-75
2022/03/21 09:55:57;;;;;;;25.42;15.73;;;;;;;10.39;57.95;102941.97;5327507;28;20020;-75
2022/03/21 09:58:30;;;;;;;21.27;17.05;;;;;;;10.56;57.77;102936.59;5326353;28;20043;-73
2022/03/21 10:01:01;;;;;;;23.73;16.80;;;;;;;10.65;57.95;102934.31;5326770;28;20055;-75
2022/03/21 10:03:36;;;;;;;22.00;16.15;;;;;;;10.68;57.74;102932.97;5327323;28;20058;-75
2022/03/21 10:06:29;;;;;;;23.15;17.05;;;;;;;10.77;57.41;102935.16;5326905;28;20024;-75
2022/03/21 10:09:13;;;;;;;21.00;16.70;;;;;;;10.88;57.85;102933.47;5327484;28;20119;-74
2022/03/21 10:11:53;;;;;;;21.88;15.15;;;;;;;11.00;56.84;102934.34;5326320;28;20023;-74
2022/03/21 10:14:29;;;;;;;22.92;17.33;;;;;;;11.08;55.86;102927.56;5317716;28;20029;-75
2022/03/21 10:17:06;;;;;;;20.20;16.88;;;;;;;11.16;56.32;102935.53;5319385;28;20028;-76
2022/03/21 10:19:52;;;;;;;23.25;17.13;;;;;;;11.23;56.02;102927.91;5316724;28;20058;-74
2022/03/21 10:22:33;;;;;;;19.60;16.30;;;;;;;11.35;55.58;102927.03;5307376;28;20020;-74
2022/03/21 10:25:06;;;;;;;22.85;16.88;;;;;;;11.46;55.25;102917.84;5322232;28;20028;-74
2022/03/21 10:27:40;;;;;;;25.58;16.77;;;;;;;11.62;54.61;102916.22;5320853;28;20473;-75
2022/03/21 10:30:22;;;;;;;23.73;17.20;;;;;;;11.50;55.12;102925.47;5318198;28;20113;-74
2022/03/21 10:32:58;;;;;;;26.92;17.40;;;;;;;11.64;55.21;102922.41;5325929;28;20024;-75
2022/03/21 10:35:31;;;;;;;23.98;16.15;;;;;;;11.70;54.97;102922.22;5315467;28;20375;-75
2022/03/21 10:38:04;;;;;;;20.75;16.45;;;;;;;11.85;53.96;102920.88;5305718;28;20027;-75
2022/03/21 10:40:47;;;;;;;21.70;17.50;;;;;;;11.98;54.23;102925.31;5305379;28;20034;-74
2022/03/21 10:43:19;;;;;;;24.42;18.00;;;;;;;11.91;54.18;102919.88;5322532;28;20019;-73
2022/03/21 10:45:53;;;;;;;27.25;17.98;;;;;;;12.06;54.58;102924.91;5325587;27;20034;-74
2022/03/21 10:48:29;;;;;;;20.52;17.52;;;;;;;12.15;54.42;102923.44;5321572;28;20030;-75
2022/03/21 10:51:02;;;;;;;22.40;17.52;;;;;;;12.29;54.68;102921.16;5308791;28;20035;-75
2022/03/21 10:53:38;;;;;;;24.05;17.05;;;;;;;12.37;53.64;102924.38;5315307;28;20085;-75
2022/03/21 10:56:11;;;;;;;21.70;18.17;;;;;;;12.42;53.15;102915.25;5315463;28;20107;-74
2022/03/21 10:58:45;;;;;;;22.42;17.80;;;;;;;12.54;53.14;102913.25;5311469;28;20124;-75
2022/03/21 11:01:16;;;;;;;21.27;16.45;;;;;;;12.56;53.38;102911.06;5308320;28;20058;-75
2022/03/21 11:03:50;;;;;;;23.80;17.90;;;;;;;12.57;52.97;102911.91;5325613;28;20031;-74
2022/03/21 11:06:21;;;;;;;19.55;17.17;;;;;;;12.57;53.69;102907.16;5307081;28;20318;-74
2022/03/21 11:08:55;;;;;;;23.75;18.63;;;;;;;12.70;53.72;102907.94;5304504;28;20055;-74
2022/03/21 11:11:27;;;;;;;21.23;17.77;;;;;;;12.88;53.67;102899.31;5324252;28;20026;-74
2022/03/21 11:13:59;;;;;;;20.20;16.80;;;;;;;12.97;53.74;102895.00;5326012;28;20016;-74
2022/03/21 11:16:30;;;;;;;23.65;17.42;;;;;;;13.10;53.16;102909.66;5324903;28;20049;-74
2022/03/21 11:19:07;;;;;;;25.05;16.85;;;;;;;12.96;53.70;102903.59;5324914;28;20061;-75
2022/03/21 11:21:38;;;;;;;25.10;19.33;;;;;;;12.99;53.19;102903.09;5320428;28;20073;-74
2022/03/21 11:24:11;;;;;;;25.20;18.42;;;;;;;13.05;52.87;102894.56;5303749;28;20028;-73
2022/03/21 11:27:04;;;;;;;29.48;17.45;;;;;;;13.24;53.13;102899.81;5304692;28;20028;-74
2022/03/21 11:30:02;;;;;;;26.92;18.95;;;;;;;13.41;52.45;102889.50;5304690;28;20024;-74
2022/03/21 11:33:05;;;;;;;25.55;16.45;;;;;;;13.58;52.68;102894.16;5303920;28;20035;-74
2022/03/21 11:35:40;;;;;;;23.65;17.77;;;;;;;13.75;51.65;102892.13;5310380;28;20020;-74
2022/03/21 11:38:28;;;;;;;;;;;;;;;13.72;52.26;102884.28;5312055;28;20038;-73
2022/03/21 11:41:15;;;;;;;26.23;19.05;;;;;;;13.82;51.74;102884.41;5304668;28;20003;-74
2022/03/21 11:44:06;;;;;;;24.67;17.50;;;;;;;13.92;51.40;102876.13;5324155;28;20036;-73
2022/03/21 11:46:38;;;;;;;25.33;19.10;;;;;;;14.07;51.81;102883.81;5325290;28;20028;-73
2022/03/21 11:49:19;;;;;;;27.88;17.83;;;;;;;14.16;51.30;102874.97;5325142;28;20118;-74
2022/03/21 11:51:58;;;;;;;21.00;17.58;;;;;;;14.28;50.92;102873.69;5320206;28;20036;-74
2022/03/21 11:54:34;;;;;;;22.83;16.60;;;;;;;14.43;50.72;102877.72;5326166;28;20149;-72
2022/03/21 11:57:09;;;;;;;24.73;17.60;;;;;;;14.49;49.71;102871.91;5309037;28;20040;-74
2022/03/21 11:59:43;;;;;;;23.35;17.17;;;;;;;14.67;50.15;102883.81;5302947;28;20039;-73
2022/03/21 12:02:15;;;;;;;20.83;15.20;;;;;;;14.70;49.29;102878.53;5304012;28;20055;-73
2022/03/21 12:05:05;;;;;;;23.70;15.13;;;;;;;14.78;49.30;102869.66;5304037;28;20412;-73
2022/03/21 12:07:38;;;;;;;27.88;15.35;;;;;;;14.83;49.28;102859.59;5303387;28;20282;-73
2022/03/21 12:10:10;;;;;;;18.83;14.00;;;;;;;15.17;49.05;102865.69;5304692;28;20043;-74
2022/03/21 12:12:41;;;;;;;26.08;17.17;;;;;;;15.08;48.76;102867.31;5308303;28;20023;-73
2022/03/21 12:15:14;;;;;;;19.50;14.77;;;;;;;15.13;48.44;102861.75;5325019;28;20084;-73
2022/03/21 12:17:47;;;;;;;18.20;14.23;;;;;;;15.26;48.36;102863.19;5323573;28;20028;-73
2022/03/21 12:20:19;;;;;;;20.42;14.63;;;;;;;15.38;48.65;102855.44;5324227;28;20035;-73
2022/03/21 12:23:00;;;;;;;23.77;17.38;;;;;;;15.56;48.06;102851.28;5325027;28;20072;-74
2022/03/21 12:25:31;;;;;;;33.38;24.90;;;;;;;15.57;47.83;102848.22;5324867;28;20094;-73
2022/03/21 12:28:21;;;;;;;23.67;15.52;;;;;;;15.61;47.89;102843.75;5323172;28;20572;-74
2022/03/21 12:30:52;;;;;;;18.48;14.82;;;;;;;15.75;47.83;102846.09;5314128;28;20020;-74
2022/03/21 12:33:27;;;;;;;18.58;14.15;;;;;;;15.79;47.25;102839.63;5323902;28;20536;-76
2022/03/21 12:36:04;;;;;;;22.65;13.73;;;;;;;15.91;47.76;102846.94;5323567;28;20022;-76
2022/03/21 12:38:37;;;;;;;40.17;33.03;;;;;;;16.09;47.31;102843.59;5317761;28;20028;-75
2022/03/21 12:41:10;;;;;;;26.58;18.55;;;;;;;16.22;47.12;102843.03;5315826;28;20082;-73
2022/03/21 12:43:43;;;;;;;27.15;17.65;;;;;;;16.28;47.16;102841.06;5316129;28;20449;-73
2022/03/21 12:46:18;;;;;;;19.42;15.77;;;;;;;16.14;46.57;102848.38;5319332;28;20068;-75
2022/03/21 12:48:57;;;;;;;23.10;15.93;;;;;;;16.33;46.83;102846.69;5326162;28;20084;-75
2022/03/21 12:51:34;;;;;;;21.40;14.10;;;;;;;16.18;47.07;102841.06;5327417;28;20028;-73
2022/03/21 12:54:06;;;;;;;17.98;13.80;;;;;;;16.25;46.32;102841.66;5307180;28;20028;-74
2022/03/21 12:56:37;;;;;;;20.27;14.02;;;;;;;16.30;46.53;102836.03;5306093;28;20036;-75
2022/03/21 12:59:10;;;;;;;18.75;13.60;;;;;;;16.47;46.43;102830.16;5317588;28;20083;-74
2022/03/21 13:01:42;;;;;;;19.50;13.95;;;;;;;16.65;46.25;102835.16;5327012;28;20051;-73
2022/03/21 13:12:57;;;;;;;18.85;14.23;;;;;;;17.02;45.72;102835.94;5316268;28;20482;-72
2022/03/21 13:15:35;;;;;;;19.83;14.90;;;;;;;17.01;45.46;102831.47;5315984;28;20028;-73
2022/03/21 13:18:06;;;;;;;20.10;14.48;;;;;;;17.08;44.77;102827.25;5318426;28;20054;-73
2022/03/21 13:20:40;;;;;;;17.88;14.50;;;;;;;17.22;44.63;102837.84;5320714;28;20035;-71
2022/03/21 13:23:18;;;;;;;24.65;17.45;;;;;;;17.12;44.68;102830.31;5307763;28;20034;-72
2022/03/21 13:25:50;;;;;;;20.77;16.52;;;;;;;17.11;44.29;102825.84;5319931;28;20036;-72
2022/03/21 13:28:24;;;;;;;19.70;14.30;;;;;;;17.21;45.41;102824.97;5318031;28;20026;-71
2022/03/21 13:31:03;;;;;;;20.65;13.95;;;;;;;17.29;44.40;102822.38;5326993;27;20054;-72
2022/03/21 13:33:35;;;;;;;22.20;14.35;;;;;;;17.06;44.91;102834.25;5311956;28;20022;-71
2022/03/21 13:36:14;;;;;;;19.35;14.68;;;;;;;17.03;44.90;102829.25;5319590;28;20115;-72
2022/03/21 13:38:46;;;;;;;21.08;15.80;;;;;;;16.91;44.45;102819.16;5319958;28;20027;-71
2022/03/21 13:41:18;;;;;;;18.77;15.57;;;;;;;16.89;44.95;102821.41;5327762;28;20520;-72
2022/03/21 13:44:04;;;;;;;26.23;18.75;;;;;;;16.97;45.03;102819.16;5326582;28;20427;-71
2022/03/21 13:46:36;;;;;;;;;;;;;;;17.14;44.88;102814.03;5328078;28;20031;-72
2022/03/21 13:49:07;;;;;;;19.55;14.30;;;;;;;17.29;44.26;102818.75;5327712;28;19907;-73
2022/03/21 13:51:42;;;;;;;21.40;12.88;;;;;;;17.48;43.57;102808.53;5318698;28;20032;-72
2022/03/21 13:54:14;;;;;;;;;;;;;;;17.64;43.76;102806.50;5319623;28;20470;-73
2022/03/21 13:56:49;;;;;;;17.17;11.93;;;;;;;17.77;43.36;102796.59;5318010;28;19970;-72
2022/03/21 13:59:21;;;;;;;15.10;11.60;;;;;;;17.87;42.11;102810.59;5326210;28;20043;-71
2022/03/21 14:01:53;;;;;;;19.33;11.68;;;;;;;17.81;42.00;102806.94;5309661;28;20102;-71
2022/03/21 14:04:25;;;;;;;14.88;12.32;;;;;;;17.80;42.28;102805.28;5309482;28;20112;-69
2022/03/21 14:06:59;;;;;;;18.70;12.52;;;;;;;17.93;41.82;102795.38;5324319;28;20024;-71
2022/03/21 14:09:31;;;;;;;15.43;12.05;;;;;;;17.94;42.23;102799.00;5319491;28;20024;-72
2022/03/21 14:12:04;;;;;;;17.08;13.52;;;;;;;17.97;42.14;102798.41;5315131;28;20046;-72
2022/03/21 14:14:36;;;;;;;15.13;13.07;;;;;;;17.99;42.30;102791.38;5306678;28;20103;-73
2022/03/21 14:17:09;;;;;;;18.55;14.00;;;;;;;17.88;42.65;102794.59;5315364;27;20055;-72
2022/03/21 14:19:45;;;;;;;18.50;13.02;;;;;;;18.01;43.07;102783.50;5325926;28;20020;-73
2022/03/21 14:22:19;;;;;;;25.85;21.50;;;;;;;18.15;42.31;102782.81;5309369;28;20023;-72
2022/03/21 14:24:51;;;;;;;17.60;12.75;;;;;;;18.22;42.25;102789.78;5305405;28;20042;-71
2022/03/21 14:27:22;;;;;;;20.95;13.35;;;;;;;18.06;42.15;102788.25;5305265;28;20024;-71
2022/03/21 14:29:53;;;;;;;22.77;13.80;;;;;;;18.19;42.33;102781.94;5320585;28;20023;-72
2022/03/21 14:32:24;;;;;;;16.88;13.13;;;;;;;18.14;42.13;102784.81;5309431;28;20043;-72
2022/03/21 14:34:56;;;;;;;16.08;13.05;;;;;;;18.12;41.83;102780.63;5321652;28;20055;-72
2022/03/21 14:37:30;;;;;;;21.60;12.95;;;;;;;18.22;42.28;102775.75;5326830;28;20085;-71
2022/03/21 14:40:01;;;;;;;17.58;13.23;;;;;;;18.36;41.92;102781.53;5310542;28;20054;-73
2022/03/21 14:42:32;;;;;;;14.98;12.52;;;;;;;18.41;42.14;102780.63;5305218;28;20437;-72
2022/03/21 14:45:04;;;;;;;15.55;13.10;;;;;;;18.45;41.94;102779.72;5321407;28;20080;-72
2022/03/21 14:47:35;;;;;;;20.10;12.88;;;;;;;18.50;41.63;102773.22;5304517;28;20032;-72
2022/03/21 14:50:09;;;;;;;18.67;12.18;;;;;;;18.28;42.13;102772.88;5305264;28;20020;-71
2022/03/21 14:52:40;;;;;;;14.93;13.32;;;;;;;18.35;42.26;102767.75;5304902;28;20039;-70
2022/03/21 14:55:14;;;;;;;19.10;15.45;;;;;;;18.44;41.81;102775.25;5321836;28;20027;-70
2022/03/21 14:57:45;;;;;;;17.00;11.98;;;;;;;18.38;42.12;102764.34;5306879;28;20048;-69
2022/03/21 15:00:17;;;;;;;18.23;12.20;;;;;;;18.51;41.34;102763.69;5312436;28;20024;-70
2022/03/21 15:02:49;;;;;;;16.13;11.32;;;;;;;18.53;41.49;102763.38;5307751;28;20115;-70
2022/03/21 15:05:21;;;;;;;16.00;11.88;;;;;;;18.53;41.08;102764.19;5304800;28;20036;-71
2022/03/21 15:07:52;;;;;;;15.15;11.52;;;;;;;18.45;40.76;102774.09;5304113;28;20386;-70
2022/03/21 15:10:24;;;;;;;15.70;11.18;;;;;;;18.53;40.90;102767.00;5312450;28;20099;-70
2022/03/21 15:12:57;;;;;;;17.38;11.18;;;;;;;18.65;41.10;102763.78;5325804;28;20035;-69
2022/03/21 15:15:29;;;;;;;15.52;11.45;;;;;;;18.58;40.76;102766.94;5325268;28;20020;-70
2022/03/21 15:18:00;;;;;;;16.45;11.07;;;;;;;18.53;40.07;102761.38;5325084;28;20024;-72
2022/03/21 15:20:32;;;;;;;17.88;11.77;;;;;;;18.53;40.88;102763.38;5314381;27;20157;-71
2022/03/21 15:23:06;;;;;;;19.38;11.52;;;;;;;18.46;40.92;102755.31;5303922;28;20028;-71
2022/03/21 15:25:38;;;;;;;17.05;12.23;;;;;;;18.55;40.69;102761.09;5306115;28;20063;-74
2022/03/21 15:28:13;;;;;;;17.45;11.98;;;;;;;18.45;40.65;102748.00;5304299;28;20062;-71
2022/03/21 15:30:45;;;;;;;20.20;12.23;;;;;;;18.54;41.20;102759.44;5303611;28;20024;-71
2022/03/21 15:33:16;;;;;;;15.13;11.60;;;;;;;18.54;40.58;102757.47;5304973;28;20024;-71
2022/03/21 15:35:47;;;;;;;17.35;11.00;;;;;;;18.55;41.09;102755.47;5304266;28;20016;-71
2022/03/21 15:43:58;;;;;;;19.83;12.02;;;;;;;18.58;40.04;102747.28;5303283;28;20479;-72
2022/03/21 15:46:30;;;;;;;14.27;10.63;;;;;;;18.44;39.97;102746.34;5304255;28;20024;-72
2022/03/21 15:49:04;;;;;;;15.18;10.02;;;;;;;18.34;40.14;102741.66;5305271;28;20119;-72
2022/03/21 15:51:35;;;;;;;15.93;10.95;;;;;;;18.26;39.92;102745.13;5303877;28;20062;-71
2022/03/21 15:54:06;;;;;;;12.90;10.25;;;;;;;18.33;39.95;102745.59;5311331;28;20066;-72
2022/03/21 15:56:41;;;;;;;17.17;11.27;;;;;;;18.33;40.30;102739.13;5305087;28;20063;-71
2022/03/21 15:59:13;;;;;;;17.33;10.52;;;;;;;18.44;39.95;102741.53;5303030;28;20486;-71
2022/03/21 16:01:44;;;;;;;18.98;12.18;;;;;;;18.47;39.83;102742.91;5303818;28;20097;-72
2022/03/21 16:04:17;;;;;;;16.80;14.23;;;;;;;18.43;40.08;102751.13;5315968;28;20076;-71
2022/03/21 16:06:48;;;;;;;19.40;11.32;;;;;;;18.32;40.66;102749.53;5304717;28;20436;-72
2022/03/21 16:09:20;;;;;;;21.77;11.90;;;;;;;18.36;40.49;102744.19;5306042;28;20021;-72
2022/03/21 16:11:53;;;;;;;17.30;10.70;;;;;;;18.32;40.22;102743.09;5304653;28;20413;-72
2022/03/21 16:14:24;;;;;;;17.33;10.85;;;;;;;18.29;40.35;102738.06;5303569;28;20045;-72
2022/03/21 16:16:56;;;;;;;23.48;10.05;;;;;;;18.39;39.91;102744.41;5303927;28;20023;-72
2022/03/21 16:19:27;;;;;;;15.48;10.02;;;;;;;18.34;39.67;102747.28;5305317;28;20024;-72
2022/03/21 16:21:58;;;;;;;11.07;8.32;;;;;;;18.28;39.78;102747.59;5307888;28;20042;-72
2022/03/21 16:24:30;;;;;;;14.77;9.85;;;;;;;18.12;39.49;102746.91;5308434;28;20032;-72
2022/03/21 16:27:01;;;;;;;13.02;8.95;;;;;;;18.04;39.40;102751.19;5306673;28;20017;-74
2022/03/21 16:29:32;;;;;;;15.55;10.13;;;;;;;18.02;39.77;102750.66;5307336;28;20475;-72
2022/03/21 16:32:09;;;;;;;12.23;8.82;;;;;;;17.98;40.21;102752.38;5307862;28;20024;-72
2022/03/21 16:34:41;;;;;;;13.90;9.35;;;;;;;17.79;41.13;102750.31;5306983;28;20375;-72
2022/03/21 16:37:15;;;;;;;18.40;11.95;;;;;;;17.69;42.78;102752.28;5307606;28;20032;-72
2022/03/21 16:39:48;;;;;;;18.52;13.48;;;;;;;17.63;43.75;102751.50;5307032;28;20035;-71
2022/03/21 16:42:19;;;;;;;19.38;12.70;;;;;;;17.59;43.81;102748.44;5307812;28;20451;-70
2022/03/21 16:44:51;;;;;;;16.83;12.98;;;;;;;17.57;43.71;102744.25;5314127;28;20041;-70
2022/03/21 16:47:22;;;;;;;16.35;11.50;;;;;;;17.49;43.97;102754.13;5328122;28;20462;-71
2022/03/21 16:49:53;;;;;;;18.60;12.15;;;;;;;17.53;43.98;102754.38;5328712;28;20019;-70
2022/03/21 16:52:25;;;;;;;16.85;12.57;;;;;;;17.48;44.42;102751.59;5328798;28;20024;-70
2022/03/21 16:54:56;;;;;;;17.30;13.25;;;;;;;17.36;44.75;102761.22;5327848;28;20024;-71
2022/03/21 16:57:28;;;;;;;18.10;13.93;;;;;;;17.37;44.93;102754.47;5323350;28;20474;-71
2022/03/21 16:59:59;;;;;;;19.45;14.52;;;;;;;17.28;45.40;102758.16;5321996;28;20103;-71
2022/03/21 17:02:30;;;;;;;19.88;15.95;;;;;;;17.20;45.67;102764.38;5308093;28;20097;-71
2022/03/21 17:05:11;;;;;;;17.48;13.52;;;;;;;17.14;45.94;102753.19;5307196;28;20043;-71
2022/03/21 17:07:47;;;;;;;20.38;14.93;;;;;;;17.15;46.18;102754.91;5306049;28;20394;-71
2022/03/21 17:10:23;;;;;;;19.73;14.27;;;;;;;17.19;47.13;102755.16;5307115;28;20025;-71
2022/03/21 17:12:54;;;;;;;18.00;15.02;;;;;;;16.98;46.68;102757.22;5310876;28;20016;-71
2022/03/21 17:15:26;;;;;;;20.15;15.90;;;;;;;17.00;46.92;102763.38;5317721;28;20057;-71
2022/03/21 17:23:38;;;;;;;23.00;17.45;;;;;;;16.83;47.36;102769.31;5305811;28;20028;-72
2022/03/21 17:26:10;;;;;;;20.83;15.77;;;;;;;16.83;47.40;102769.31;5306128;28;20119;-71
2022/03/21 17:28:41;;;;;;;20.60;14.73;;;;;;;16.80;47.73;102769.91;5306527;28;20062;-71
